Time;durP1;ratioP1;P1;durP2;ratioP2;P2;SDS_P1;SDS_P2;PMS_P1;PMS_P2;Temp;Humidity;BMP_temperature;BMP_pressure;BME280_temperature;BME280_humidity;BME280_pressure;Samples;Min_cycle;Max_cycle;Signal;HPM_P1;HPM_P2
2023/06/11 00:00:26;;;;;;;;;;;;;;;;;;;;;
2023/06/11 00:03:21;;;;;;;;;;;20.50;75.10;;;;;;5849512;24;19954;-96
2023/06/11 00:06:28;;;;;;;;;;;20.50;75.80;;;;;;5850477;24;20513;-96
2023/06/11 00:09:16;;;;;;;;;;;20.50;75.00;;;;;;5892395;24;19912;-96
2023/06/11 00:12:12;;;;;;;;;;;20.50;75.20;;;;;;5930701;24;19915;-96
2023/06/11 00:15:01;;;;;;;;;;;20.50;75.20;;;;;;5928894;24;19911;-96
2023/06/11 00:17:48;;;;;;;;;;;20.40;75.20;;;;;;5957287;23;19907;-95
2023/06/11 00:20:16;;;;;;;;;;;20.40;75.20;;;;;;6124736;23;19968;-95
2023/06/11 00:23:07;;;;;;;;;;;20.40;75.40;;;;;;6099791;23;20309;-94
2023/06/11 00:25:33;;;;;;;;;;;20.40;75.10;;;;;;6101618;23;19905;-93
2023/06/11 00:28:06;;;;;;;;;;;20.40;75.40;;;;;;6102059;23;19909;-96
2023/06/11 00:30:55;;;;;;;;;;;20.40;75.30;;;;;;6076366;23;19913;-94
2023/06/11 00:33:21;;;;;;;;;;;20.40;75.40;;;;;;6097689;23;20383;-96
2023/06/11 00:35:50;;;;;;;;;;;20.40;75.40;;;;;;6098701;23;19989;-96
2023/06/11 00:38:49;;;;;;;;;;;20.40;75.60;;;;;;6102048;23;19984;-96
2023/06/11 00:41:15;;;;;;;;;;;20.40;75.50;;;;;;6098982;23;19909;-94
2023/06/11 00:44:03;;;;;;;;;;;20.40;75.60;;;;;;6096548;23;19906;-96
2023/06/11 00:46:57;;;;;;;;;;;20.40;75.50;;;;;;6099116;23;20216;-96
2023/06/11 00:49:25;;;;;;;;;;;20.40;75.40;;;;;;6094585;23;20345;-94
2023/06/11 00:52:13;;;;;;;;;;;20.40;75.20;;;;;;6073977;23;19992;-95
2023/06/11 00:54:40;;;;;;;;;;;20.40;75.20;;;;;;6099864;23;19905;-96
2023/06/11 00:57:28;;;;;;;;;;;20.40;75.30;;;;;;6100525;23;19910;-96
2023/06/11 01:00:34;;;;;;;;;;;20.40;75.20;;;;;;6100724;23;20000;-96
2023/06/11 01:03:18;;;;;;;;;;;20.40;75.30;;;;;;6095152;23;19913;-95
2023/06/11 01:06:13;;;;;;;;;;;20.40;75.20;;;;;;6072984;23;19948;-96
2023/06/11 01:09:04;;;;;;;;;;;20.40;75.40;;;;;;6098549;23;19912;-95
2023/06/11 01:11:53;;;;;;;;;;;20.40;75.40;;;;;;6097098;23;19943;-96
2023/06/11 01:14:20;;;;;;;;;;;20.30;76.30;;;;;;6097294;23;19984;-95
2023/06/11 01:16:45;;;;;;;;;;;20.30;75.60;;;;;;6072772;23;19909;-96
2023/06/11 01:19:23;;;;;;;;;;;20.30;75.50;;;;;;6097943;23;19906;-96
2023/06/11 01:22:13;;;;;;;;;;;20.40;75.40;;;;;;6097588;23;19913;-96
2023/06/11 01:25:04;;;;;;;;;;;20.30;75.50;;;;;;6097319;23;19909;-96
2023/06/11 01:27:50;;;;;;;;;;;20.40;75.60;;;;;;6058027;23;19972;-96
2023/06/11 01:30:39;;;;;;;;;;;20.30;75.30;;;;;;6098304;23;19967;-95
2023/06/11 01:33:08;;;;;;;;;;;20.30;75.50;;;;;;6095892;23;19933;-96
2023/06/11 01:35:39;;;;;;;;;;;20.30;75.50;;;;;;6072596;23;19996;-96
2023/06/11 01:38:08;;;;;;;;;;;20.30;75.30;;;;;;6096863;23;19939;-96
2023/06/11 01:40:52;;;;;;;;;;;20.30;75.50;;;;;;6072825;23;19964;-95
2023/06/11 01:43:17;;;;;;;;;;;20.30;75.40;;;;;;6096223;23;19905;-95
2023/06/11 01:45:46;;;;;;;;;;;20.30;75.50;;;;;;6094332;23;20036;-95
2023/06/11 01:48:11;;;;;;;;;;;20.30;75.40;;;;;;6072376;23;19909;-95
2023/06/11 01:50:37;;;;;;;;;;;20.30;75.50;;;;;;6096711;23;19985;-94
2023/06/11 01:53:05;;;;;;;;;;;20.40;75.60;;;;;;6096118;23;19965;-96
2023/06/11 01:55:31;;;;;;;;;;;20.30;75.70;;;;;;6072656;23;19909;-94
2023/06/11 01:57:57;;;;;;;;;;;20.30;75.50;;;;;;6072736;23;19916;-95
2023/06/11 02:00:23;;;;;;;;;;;20.30;75.60;;;;;;6096397;23;19980;-95
2023/06/11 02:02:49;;;;;;;;;;;20.30;75.50;;;;;;6072277;23;19917;-95
2023/06/11 02:05:15;;;;;;;;;;;20.30;75.50;;;;;;6096745;23;19912;-95
2023/06/11 02:07:41;;;;;;;;;;;20.20;75.40;;;;;;6096847;23;19912;-96
2023/06/11 02:10:07;;;;;;;;;;;20.20;75.60;;;;;;6095192;23;19983;-95
2023/06/11 02:12:37;;;;;;;;;;;20.20;75.60;;;;;;6097218;23;19912;-95
2023/06/11 02:15:05;;;;;;;;;;;20.30;75.50;;;;;;6094698;23;19988;-96
2023/06/11 02:17:51;;;;;;;;;;;20.20;75.40;;;;;;6069222;23;19910;-95
2023/06/11 02:20:37;;;;;;;;;;;20.30;75.70;;;;;;6095956;23;19909;-96
2023/06/11 02:23:03;;;;;;;;;;;20.20;75.50;;;;;;6096154;23;20324;-95
2023/06/11 02:25:30;;;;;;;;;;;20.30;75.70;;;;;;6072437;23;19913;-95
2023/06/11 02:27:55;;;;;;;;;;;20.20;75.60;;;;;;6095109;23;19906;-94
2023/06/11 02:30:23;;;;;;;;;;;20.20;75.60;;;;;;6072067;23;19916;-95
2023/06/11 02:32:49;;;;;;;;;;;20.20;75.60;;;;;;6097034;23;19905;-96
2023/06/11 02:35:15;;;;;;;;;;;20.20;75.70;;;;;;6095952;23;19916;-96
2023/06/11 02:37:41;;;;;;;;;;;20.20;75.70;;;;;;6097264;23;20208;-96
2023/06/11 02:40:08;;;;;;;;;;;20.20;75.70;;;;;;6096966;23;19925;-94
2023/06/11 02:42:33;;;;;;;;;;;20.20;75.70;;;;;;6072580;23;20338;-96
2023/06/11 02:44:59;;;;;;;;;;;20.20;75.70;;;;;;6073051;23;19910;-96
2023/06/11 02:47:41;;;;;;;;;;;20.20;75.60;;;;;;6096459;23;19912;-96
2023/06/11 02:50:07;;;;;;;;;;;20.20;75.60;;;;;;6073365;23;20148;-95
2023/06/11 02:52:33;;;;;;;;;;;20.20;75.70;;;;;;6096237;23;19948;-95
2023/06/11 02:54:59;;;;;;;;;;;20.20;75.80;;;;;;6095680;23;19909;-96
2023/06/11 02:57:27;;;;;;;;;;;20.20;75.70;;;;;;6095749;23;19906;-96
2023/06/11 02:59:53;;;;;;;;;;;20.20;75.80;;;;;;6071695;23;19917;-96
2023/06/11 03:02:19;;;;;;;;;;;20.20;75.80;;;;;;6095909;23;19976;-95
2023/06/11 03:04:47;;;;;;;;;;;20.20;75.80;;;;;;6071190;23;20274;-95
2023/06/11 03:07:13;;;;;;;;;;;20.20;75.80;;;;;;6071004;23;20041;-96
2023/06/11 03:09:39;;;;;;;;;;;20.10;75.80;;;;;;6095024;23;19943;-96
2023/06/11 03:12:06;;;;;;;;;;;20.10;75.80;;;;;;6094097;23;19928;-95
2023/06/11 03:14:33;;;;;;;;;;;20.20;75.80;;;;;;6071266;23;20249;-95
2023/06/11 03:17:06;;;;;;;;;;;20.10;75.70;;;;;;6070813;23;20382;-96
2023/06/11 03:19:32;;;;;;;;;;;20.10;75.70;;;;;;6070907;23;19991;-93
2023/06/11 03:21:57;;;;;;;;;;;20.10;75.80;;;;;;6095104;23;19944;-95
2023/06/11 03:24:23;;;;;;;;;;;20.10;75.90;;;;;;6096253;23;19967;-96
2023/06/11 03:26:49;;;;;;;;;;;20.10;75.80;;;;;;6095791;23;20065;-95
2023/06/11 03:29:15;;;;;;;;;;;20.10;75.80;;;;;;6095318;23;20338;-94
2023/06/11 03:31:41;;;;;;;;;;;20.10;75.90;;;;;;6095900;23;19984;-95
2023/06/11 03:34:07;;;;;;;;;;;20.10;75.90;;;;;;6096385;23;19984;-95
2023/06/11 03:36:33;;;;;;;;;;;20.10;75.90;;;;;;6071615;23;19921;-93
2023/06/11 03:39:10;;;;;;;;;;;20.10;75.80;;;;;;6094347;23;22479;-94
2023/06/11 03:41:38;;;;;;;;;;;20.10;75.90;;;;;;6072330;23;19913;-96
2023/06/11 03:44:21;;;;;;;;;;;20.10;75.80;;;;;;6095916;23;20291;-95
2023/06/11 03:46:47;;;;;;;;;;;20.10;76.60;;;;;;6094592;23;19905;-96
2023/06/11 03:49:14;;;;;;;;;;;20.10;75.80;;;;;;6096224;23;20223;-96
2023/06/11 03:51:41;;;;;;;;;;;20.10;75.80;;;;;;6071153;23;20304;-94
2023/06/11 03:54:07;;;;;;;;;;;20.10;75.80;;;;;;6095563;23;19909;-96
2023/06/11 03:56:33;;;;;;;;;;;20.10;75.90;;;;;;6097589;23;19928;-95
2023/06/11 03:58:59;;;;;;;;;;;20.10;75.80;;;;;;6097468;23;19988;-96
2023/06/11 04:01:30;;;;;;;;;;;20.10;75.90;;;;;;6097530;23;19944;-96
2023/06/11 04:03:57;;;;;;;;;;;20.10;75.80;;;;;;6097962;23;19914;-96
2023/06/11 04:06:29;;;;;;;;;;;20.00;75.90;;;;;;6098261;23;19928;-96
2023/06/11 04:09:01;;;;;;;;;;;20.00;75.80;;;;;;6078778;23;19910;-95
2023/06/11 04:11:27;;;;;;;;;;;20.00;76.00;;;;;;6076622;23;20392;-96
2023/06/11 04:13:56;;;;;;;;;;;20.00;76.00;;;;;;6101638;23;19905;-96
2023/06/11 04:16:21;;;;;;;;;;;20.00;75.90;;;;;;6102077;23;19906;-95
2023/06/11 04:18:52;;;;;;;;;;;20.00;76.00;;;;;;6100827;23;19933;-96
2023/06/11 04:21:41;;;;;;;;;;;20.00;75.90;;;;;;6075455;23;19913;-96
2023/06/11 04:24:16;;;;;;;;;;;20.00;75.90;;;;;;6098668;23;20005;-96
2023/06/11 04:26:43;;;;;;;;;;;20.00;76.00;;;;;;6074724;23;20000;-96
2023/06/11 04:29:29;;;;;;;;;;;20.00;76.00;;;;;;6074770;23;19997;-96
2023/06/11 04:32:01;;;;;;;;;;;20.00;76.10;;;;;;6099811;23;19909;-96
2023/06/11 04:34:48;;;;;;;;;;;20.00;76.00;;;;;;6096854;23;19905;-95
2023/06/11 04:37:19;;;;;;;;;;;20.00;76.10;;;;;;6096752;23;19909;-96
2023/06/11 04:39:50;;;;;;;;;;;20.00;76.00;;;;;;6073787;23;20349;-96
2023/06/11 04:42:27;;;;;;;;;;;;;;;;;;;;;
2023/06/11 04:45:11;;;;;;;;;;;20.00;76.10;;;;;;6094841;23;20339;-96
2023/06/11 04:47:37;;;;;;;;;;;20.00;76.20;;;;;;6074738;23;19916;-95
2023/06/11 04:50:08;;;;;;;;;;;20.00;76.20;;;;;;6097857;23;19905;-95
2023/06/11 04:52:52;;;;;;;;;;;20.00;76.20;;;;;;6095099;23;19909;-96
2023/06/11 04:55:38;;;;;;;;;;;20.00;76.20;;;;;;6097269;23;19984;-96
2023/06/11 04:58:09;;;;;;;;;;;20.00;76.30;;;;;;6093166;23;19947;-96
2023/06/11 05:00:47;;;;;;;;;;;20.00;76.20;;;;;;6096360;23;19956;-95
2023/06/11 05:03:36;;;;;;;;;;;20.00;76.20;;;;;;6096002;23;19914;-96
2023/06/11 05:06:04;;;;;;;;;;;20.00;76.20;;;;;;6098191;23;19906;-96
2023/06/11 05:08:38;;;;;;;;;;;20.00;76.30;;;;;;6097648;23;20226;-96
2023/06/11 05:11:06;;;;;;;;;;;20.10;76.50;;;;;;6095975;23;19946;-94
2023/06/11 05:14:02;;;;;;;;;;;20.00;76.40;;;;;;6102894;23;20339;-96
2023/06/11 05:16:29;;;;;;;;;;;20.00;76.50;;;;;;6101384;23;20043;-96
2023/06/11 05:19:01;;;;;;;;;;;20.00;76.70;;;;;;6100991;23;19909;-96
2023/06/11 05:21:50;;;;;;;;;;;20.00;76.60;;;;;;6104955;23;19916;-96
2023/06/11 05:24:43;;;;;;;;;;;20.00;76.60;;;;;;6104431;23;19936;-96
2023/06/11 05:27:09;;;;;;;;;;;20.00;76.70;;;;;;6105318;23;19909;-96
2023/06/11 05:29:38;;;;;;;;;;;20.00;76.80;;;;;;6100541;23;19932;-95
2023/06/11 05:32:27;;;;;;;;;;;20.00;77.00;;;;;;6103417;23;19932;-96
2023/06/11 05:38:06;;;;;;;;;;;20.00;77.30;;;;;;6099382;23;19933;-96
2023/06/11 05:40:32;;;;;;;;;;;20.00;77.20;;;;;;6100498;23;19999;-95
2023/06/11 05:43:01;;;;;;;;;;;20.00;77.30;;;;;;6076566;23;19910;-96
2023/06/11 05:45:27;;;;;;;;;;;20.00;77.50;;;;;;6076987;23;19975;-96
2023/06/11 05:47:53;;;;;;;;;;;20.00;77.60;;;;;;6099596;23;19925;-96
2023/06/11 05:50:18;;;;;;;;;;;20.00;77.60;;;;;;6076338;23;19909;-92
2023/06/11 05:52:44;;;;;;;;;;;20.00;78.00;;;;;;6094851;23;20277;-89
2023/06/11 05:55:10;;;;;;;;;;;20.00;78.20;;;;;;6098956;23;19924;-91
2023/06/11 05:57:36;;;;;;;;;;;20.40;79.30;;;;;;6154690;23;19904;-90
2023/06/11 06:00:02;;;;;;;;;;;20.00;79.40;;;;;;6154147;23;19916;-90
2023/06/11 06:02:27;;;;;;;;;;;19.90;79.70;;;;;;6152704;23;19967;-94
2023/06/11 06:04:53;;;;;;;;;;;19.90;79.50;;;;;;6154835;23;19912;-93
2023/06/11 06:07:19;;;;;;;;;;;19.90;79.30;;;;;;6154161;23;19909;-96
2023/06/11 06:09:44;;;;;;;;;;;20.00;79.40;;;;;;6151872;23;19937;-95
2023/06/11 06:12:10;;;;;;;;;;;20.00;79.40;;;;;;6154553;23;19909;-93
2023/06/11 06:14:36;;;;;;;;;;;20.00;79.30;;;;;;6155073;23;19905;-94
2023/06/11 06:17:01;;;;;;;;;;;20.60;79.90;;;;;;6155369;23;20049;-95
2023/06/11 06:19:27;;;;;;;;;;;20.00;79.40;;;;;;6153662;23;19912;-96
2023/06/11 06:21:52;;;;;;;;;;;20.00;79.70;;;;;;6155314;23;19912;-96
2023/06/11 06:24:18;;;;;;;;;;;20.00;79.70;;;;;;6152232;23;19916;-95
2023/06/11 06:26:43;;;;;;;;;;;20.00;79.50;;;;;;6154248;23;19905;-94
2023/06/11 06:29:10;;;;;;;;;;;20.00;79.40;;;;;;6152815;23;19927;-95
2023/06/11 06:31:38;;;;;;;;;;;20.00;79.30;;;;;;6153236;23;19915;-95
2023/06/11 06:34:04;;;;;;;;;;;20.00;79.40;;;;;;6152788;23;19951;-95
2023/06/11 06:36:30;;;;;;;;;;;20.70;79.90;;;;;;6153016;23;19969;-96
2023/06/11 06:38:55;;;;;;;;;;;20.10;79.50;;;;;;6152251;23;19904;-93
2023/06/11 06:41:20;;;;;;;;;;;20.10;79.40;;;;;;6152541;23;19912;-96
2023/06/11 06:43:46;;;;;;;;;;;20.40;79.50;;;;;;6150591;23;19905;-96
2023/06/11 06:46:12;;;;;;;;;;;20.10;79.20;;;;;;6152476;23;19908;-94
2023/06/11 06:48:38;;;;;;;;;;;20.10;79.10;;;;;;6152597;23;19904;-95
2023/06/11 06:51:03;;;;;;;;;;;20.10;79.20;;;;;;6151350;23;19987;-94
2023/06/11 06:53:29;;;;;;;;;;;20.10;79.30;;;;;;6151905;23;19904;-95
2023/06/11 06:55:55;;;;;;;;;;;20.10;79.10;;;;;;6149909;23;19935;-96
2023/06/11 06:58:20;;;;;;;;;;;20.80;79.60;;;;;;6151431;23;19983;-95
2023/06/11 07:00:46;;;;;;;;;;;20.20;79.20;;;;;;6152879;23;20320;-95
2023/06/11 07:03:14;;;;;;;;;;;20.20;79.10;;;;;;6152290;23;20274;-92
2023/06/11 07:05:41;;;;;;;;;;;20.20;79.10;;;;;;6152539;23;20260;-94
2023/06/11 07:08:08;;;;;;;;;;;20.20;79.10;;;;;;6153292;23;19905;-95
2023/06/11 07:10:34;;;;;;;;;;;20.20;79.10;;;;;;6151301;23;19912;-96
2023/06/11 07:12:59;;;;;;;;;;;20.20;79.00;;;;;;6152131;23;19939;-95
2023/06/11 07:15:25;;;;;;;;;;;20.20;79.00;;;;;;6151821;23;20219;-94
2023/06/11 07:17:50;;;;;;;;;;;20.20;79.00;;;;;;6151510;23;19911;-94
2023/06/11 07:20:16;;;;;;;;;;;20.20;78.90;;;;;;6152098;23;19947;-93
2023/06/11 07:22:41;;;;;;;;;;;20.30;79.00;;;;;;6151160;23;19932;-94
2023/06/11 07:25:08;;;;;;;;;;;20.70;79.10;;;;;;6153177;23;19904;-92
2023/06/11 07:27:33;;;;;;;;;;;20.30;78.90;;;;;;6144294;23;19909;-92
2023/06/11 07:29:59;;;;;;;;;;;20.30;78.90;;;;;;6147610;23;19915;-94
2023/06/11 07:32:24;;;;;;;;;;;20.40;78.90;;;;;;6153270;23;19905;-94
2023/06/11 07:34:50;;;;;;;;;;;20.40;78.80;;;;;;6153236;23;19915;-95
2023/06/11 07:37:15;;;;;;;;;;;20.40;78.80;;;;;;6151451;23;19975;-96
2023/06/11 07:39:41;;;;;;;;;;;20.40;78.70;;;;;;6153855;23;20345;-95
2023/06/11 07:42:07;;;;;;;;;;;20.50;78.60;;;;;;6148935;23;19905;-89
2023/06/11 07:44:32;;;;;;;;;;;20.50;78.40;;;;;;6156345;23;19905;-95
2023/06/11 07:46:58;;;;;;;;;;;20.60;78.20;;;;;;6156400;23;19909;-95
2023/06/11 07:49:23;;;;;;;;;;;20.70;78.20;;;;;;6156187;23;19980;-93
2023/06/11 07:51:49;;;;;;;;;;;21.20;79.10;;;;;;6157083;23;19905;-92
2023/06/11 07:54:15;;;;;;;;;;;20.60;77.80;;;;;;6156920;23;19939;-94
2023/06/11 07:56:40;;;;;;;;;;;20.70;77.70;;;;;;6156200;23;19966;-93
2023/06/11 07:59:07;;;;;;;;;;;20.70;77.70;;;;;;6156041;23;19904;-94
2023/06/11 08:01:32;;;;;;;;;;;20.70;77.50;;;;;;6155805;23;19935;-94
2023/06/11 08:03:58;;;;;;;;;;;20.80;77.50;;;;;;6156518;23;20325;-95
2023/06/11 08:06:23;;;;;;;;;;;20.80;77.30;;;;;;6155850;23;19928;-93
2023/06/11 08:08:50;;;;;;;;;;;20.80;77.10;;;;;;6155722;23;19904;-96
2023/06/11 08:11:15;;;;;;;;;;;21.40;77.40;;;;;;6154268;23;19912;-93
2023/06/11 08:13:41;;;;;;;;;;;20.90;77.70;;;;;;6156253;23;19904;-93
2023/06/11 08:16:07;;;;;;;;;;;21.60;77.30;;;;;;6155603;23;19936;-96
2023/06/11 08:18:33;;;;;;;;;;;21.00;76.80;;;;;;6153453;23;19963;-91
2023/06/11 08:20:58;;;;;;;;;;;21.00;76.60;;;;;;6154567;23;19912;-86
2023/06/11 08:23:24;;;;;;;;;;;21.10;76.50;;;;;;6155127;23;19971;-94
2023/06/11 08:25:50;;;;;;;;;;;21.10;76.20;;;;;;6153336;23;19911;-96
2023/06/11 08:28:16;;;;;;;;;;;21.10;76.00;;;;;;6155493;23;20829;-96
2023/06/11 08:30:41;;;;;;;;;;;21.10;75.80;;;;;;6159857;23;19904;-96
2023/06/11 08:33:07;;;;;;;;;;;21.20;75.60;;;;;;6160513;23;19908;-96
2023/06/11 08:35:32;;;;;;;;;;;21.80;75.90;;;;;;6155789;23;19935;-96
2023/06/11 08:38:02;;;;;;;;;;;21.20;75.40;;;;;;6158578;23;20034;-95
2023/06/11 08:40:28;;;;;;;;;;;21.30;75.30;;;;;;6157684;23;19913;-96
2023/06/11 08:42:58;;;;;;;;;;;21.30;75.10;;;;;;6157416;23;19909;-95
2023/06/11 08:45:37;;;;;;;;;;;21.30;75.00;;;;;;6153791;23;19932;-91
2023/06/11 08:48:03;;;;;;;;;;;21.30;74.90;;;;;;6153081;23;19911;-89
2023/06/11 08:50:29;;;;;;;;;;;21.40;74.50;;;;;;6152515;23;19936;-89
2023/06/11 08:52:56;;;;;;;;;;;21.40;73.10;;;;;;6152785;23;19912;-89
2023/06/11 08:55:21;;;;;;;;;;;21.50;72.10;;;;;;6152524;23;20341;-88
2023/06/11 08:57:48;;;;;;;;;;;21.50;71.80;;;;;;6153952;23;19909;-88
2023/06/11 09:00:14;;;;;;;;;;;21.50;71.50;;;;;;6153782;23;19939;-89
2023/06/11 09:02:40;;;;;;;;;;;21.60;70.90;;;;;;6153124;23;20326;-89
2023/06/11 09:05:23;;;;;;;;;;;21.60;70.70;;;;;;6154016;23;19908;-90
2023/06/11 09:07:50;;;;;;;;;;;21.60;70.40;;;;;;6153193;23;19908;-89
2023/06/11 09:10:16;;;;;;;;;;;22.20;71.10;;;;;;6153476;23;19905;-91
2023/06/11 09:12:47;;;;;;;;;;;21.70;70.00;;;;;;6154681;23;19904;-89
2023/06/11 09:15:13;;;;;;;;;;;21.70;70.00;;;;;;6155236;23;19961;-90
2023/06/11 09:17:39;;;;;;;;;;;21.70;69.60;;;;;;6153997;23;20369;-90
2023/06/11 09:20:06;;;;;;;;;;;21.80;68.90;;;;;;6147749;23;19912;-89
2023/06/11 09:22:32;;;;;;;;;;;21.80;69.00;;;;;;6151601;23;19975;-89
2023/06/11 09:25:01;;;;;;;;;;;21.90;68.70;;;;;;6152274;23;20273;-88
2023/06/11 09:27:27;;;;;;;;;;;21.80;68.20;;;;;;6150853;23;20258;-89
2023/06/11 09:29:53;;;;;;;;;;;21.90;68.50;;;;;;6151505;23;19904;-88
2023/06/11 09:32:18;;;;;;;;;;;21.90;68.20;;;;;;6151346;23;19919;-89
2023/06/11 09:34:45;;;;;;;;;;;21.90;67.20;;;;;;6150831;23;19905;-90
2023/06/11 09:37:11;;;;;;;;;;;22.00;67.30;;;;;;6153283;23;19911;-91
2023/06/11 09:39:39;;;;;;;;;;;22.10;66.70;;;;;;6150365;23;20237;-90
2023/06/11 09:42:05;;;;;;;;;;;22.00;66.50;;;;;;6153571;23;19905;-89
2023/06/11 09:44:31;;;;;;;;;;;22.00;66.60;;;;;;6154750;23;19904;-89
2023/06/11 09:46:57;;;;;;;;;;;22.00;66.30;;;;;;6151641;23;19984;-88
2023/06/11 09:49:23;;;;;;;;;;;22.10;66.30;;;;;;6151608;23;19932;-89
2023/06/11 09:51:50;;;;;;;;;;;22.10;66.00;;;;;;6152630;23;19915;-89
2023/06/11 09:54:16;;;;;;;;;;;22.10;66.20;;;;;;6148780;23;19905;-91
2023/06/11 09:56:42;;;;;;;;;;;22.10;66.10;;;;;;6150811;23;19913;-88
2023/06/11 09:59:09;;;;;;;;;;;22.10;66.10;;;;;;6152650;23;19909;-87
2023/06/11 10:01:35;;;;;;;;;;;22.10;66.40;;;;;;6151403;23;19971;-88
2023/06/11 10:04:01;;;;;;;;;;;22.10;66.20;;;;;;6152118;23;19909;-87
2023/06/11 10:06:29;;;;;;;;;;;22.10;65.70;;;;;;6151432;23;19905;-87
2023/06/11 10:08:57;;;;;;;;;;;22.10;65.70;;;;;;6152488;23;19905;-86
2023/06/11 10:11:23;;;;;;;;;;;22.20;65.80;;;;;;6150617;23;19951;-87
2023/06/11 10:13:57;;;;;;;;;;;22.20;65.80;;;;;;6151675;23;19908;-87
2023/06/11 10:16:22;;;;;;;;;;;22.10;65.80;;;;;;6151989;23;19908;-88
2023/06/11 10:18:49;;;;;;;;;;;22.10;65.40;;;;;;6152365;23;19983;-88
2023/06/11 10:21:15;;;;;;;;;;;22.10;65.10;;;;;;6151102;23;19912;-88
2023/06/11 10:23:41;;;;;;;;;;;22.10;65.00;;;;;;6151426;23;19905;-88
2023/06/11 10:26:09;;;;;;;;;;;22.30;64.70;;;;;;6152922;23;19905;-87
2023/06/11 10:28:36;;;;;;;;;;;22.10;64.80;;;;;;6152879;23;19937;-87
2023/06/11 10:31:02;;;;;;;;;;;22.10;64.80;;;;;;6150664;23;19966;-88
2023/06/11 10:33:54;;;;;;;;;;;22.10;65.00;;;;;;6151227;23;20417;-88
2023/06/11 10:36:31;;;;;;;;;;;22.10;64.60;;;;;;6148864;23;20302;-88
2023/06/11 10:39:04;;;;;;;;;;;22.10;64.40;;;;;;6152436;23;20314;-88
2023/06/11 10:41:30;;;;;;;;;;;22.10;64.10;;;;;;6150889;23;19917;-86
2023/06/11 10:43:57;;;;;;;;;;;22.00;64.30;;;;;;6152477;23;19920;-86
2023/06/11 10:46:23;;;;;;;;;;;22.00;63.80;;;;;;6151337;23;19912;-87
2023/06/11 10:48:50;;;;;;;;;;;22.00;64.70;;;;;;6149987;23;19908;-88
2023/06/11 10:51:16;;;;;;;;;;;22.00;64.50;;;;;;6151982;23;19905;-86
2023/06/11 10:53:41;;;;;;;;;;;22.00;64.50;;;;;;6152299;23;20275;-87
2023/06/11 10:56:08;;;;;;;;;;;22.20;64.70;;;;;;6152511;23;20212;-87
2023/06/11 10:58:33;;;;;;;;;;;22.00;64.50;;;;;;6151548;23;19905;-88
2023/06/11 11:00:59;;;;;;;;;;;21.90;64.60;;;;;;6150945;23;19923;-89
2023/06/11 11:03:30;;;;;;;;;;;22.00;64.70;;;;;;6125978;23;19905;-88
2023/06/11 11:05:56;;;;;;;;;;;21.90;64.60;;;;;;6152570;23;19940;-87
2023/06/11 11:08:21;;;;;;;;;;;21.90;65.00;;;;;;6151923;23;19905;-87
2023/06/11 11:10:52;;;;;;;;;;;21.90;64.50;;;;;;6125217;23;20314;-87
2023/06/11 11:13:17;;;;;;;;;;;21.90;63.80;;;;;;6151616;23;19936;-86
2023/06/11 11:15:43;;;;;;;;;;;21.90;63.10;;;;;;6151412;23;20294;-88
2023/06/11 11:18:08;;;;;;;;;;;21.90;62.90;;;;;;6152179;23;19991;-87
2023/06/11 11:20:34;;;;;;;;;;;21.90;62.30;;;;;;6125297;23;19916;-88
2023/06/11 11:22:59;;;;;;;;;;;21.80;62.10;;;;;;6124634;23;19931;-87
2023/06/11 11:25:28;;;;;;;;;;;21.80;62.40;;;;;;6151963;23;19904;-88
2023/06/11 11:27:53;;;;;;;;;;;21.70;62.20;;;;;;6152379;23;20345;-87
2023/06/11 11:30:19;;;;;;;;;;;21.80;62.90;;;;;;6125059;23;19904;-86
2023/06/11 11:32:45;;;;;;;;;;;21.80;62.60;;;;;;6151170;23;19904;-88
2023/06/11 11:35:11;;;;;;;;;;;21.80;62.90;;;;;;6126793;23;19905;-88
2023/06/11 11:37:37;;;;;;;;;;;21.80;62.70;;;;;;6152258;23;19904;-87
2023/06/11 11:40:08;;;;;;;;;;;21.80;62.30;;;;;;6151600;23;19919;-88
2023/06/11 11:42:46;;;;;;;;;;;21.80;62.70;;;;;;6125527;23;19905;-87
2023/06/11 11:45:12;;;;;;;;;;;21.80;62.40;;;;;;6126515;23;19905;-88
2023/06/11 11:47:40;;;;;;;;;;;21.80;62.50;;;;;;6152855;23;19904;-88
2023/06/11 11:50:10;;;;;;;;;;;21.70;61.80;;;;;;6125026;23;19932;-87
2023/06/11 11:52:37;;;;;;;;;;;21.70;61.60;;;;;;6126415;23;19983;-87
2023/06/11 11:55:03;;;;;;;;;;;21.70;61.50;;;;;;6151925;23;19987;-86
2023/06/11 11:57:30;;;;;;;;;;;21.70;61.60;;;;;;6152238;23;19909;-88
2023/06/11 11:59:55;;;;;;;;;;;21.70;61.40;;;;;;6125248;23;19983;-88
2023/06/11 12:02:27;;;;;;;;;;;21.70;61.20;;;;;;6125942;23;19940;-88
2023/06/11 12:04:57;;;;;;;;;;;21.70;61.30;;;;;;6151304;23;19913;-88
2023/06/11 12:07:23;;;;;;;;;;;21.70;61.40;;;;;;6150797;23;20322;-88
2023/06/11 12:09:48;;;;;;;;;;;21.70;61.50;;;;;;6123739;23;19915;-87
2023/06/11 12:12:14;;;;;;;;;;;21.80;61.10;;;;;;6151154;23;19964;-88
2023/06/11 12:14:39;;;;;;;;;;;21.70;60.70;;;;;;6126781;23;19905;-90
2023/06/11 12:17:10;;;;;;;;;;;21.70;61.20;;;;;;6127241;23;19905;-89
2023/06/11 12:19:35;;;;;;;;;;;21.70;61.40;;;;;;6127873;23;19995;-88
2023/06/11 12:22:02;;;;;;;;;;;22.10;61.20;;;;;;6154008;23;20334;-88
2023/06/11 12:24:28;;;;;;;;;;;21.80;60.90;;;;;;6128153;23;19932;-88
2023/06/11 12:26:54;;;;;;;;;;;21.70;60.70;;;;;;6153207;23;19913;-87
2023/06/11 12:29:19;;;;;;;;;;;22.20;60.80;;;;;;6149965;23;19909;-88
2023/06/11 12:31:48;;;;;;;;;;;21.60;60.00;;;;;;6127276;23;19904;-89
2023/06/11 12:34:15;;;;;;;;;;;21.70;59.80;;;;;;6127638;23;19904;-87
2023/06/11 12:36:42;;;;;;;;;;;21.70;59.80;;;;;;6151725;23;20409;-88
2023/06/11 12:39:08;;;;;;;;;;;21.70;59.50;;;;;;6152964;23;19995;-88
2023/06/11 12:41:33;;;;;;;;;;;21.70;60.20;;;;;;6127244;23;20030;-88
2023/06/11 12:43:59;;;;;;;;;;;21.70;59.20;;;;;;6127713;23;19911;-90
2023/06/11 12:46:26;;;;;;;;;;;21.70;58.90;;;;;;6124976;23;19909;-89
2023/06/11 12:48:55;;;;;;;;;;;21.70;59.00;;;;;;6153842;23;19972;-89
2023/06/11 12:51:21;;;;;;;;;;;22.30;59.30;;;;;;6126746;23;19912;-89
2023/06/11 12:53:46;;;;;;;;;;;21.70;59.30;;;;;;6126736;23;20237;-88
2023/06/11 12:56:12;;;;;;;;;;;21.60;59.40;;;;;;6153977;23;19913;-88
2023/06/11 12:58:38;;;;;;;;;;;21.70;59.50;;;;;;6127941;23;19908;-88
2023/06/11 13:01:12;;;;;;;;;;;21.70;59.70;;;;;;6126896;23;19991;-88
2023/06/11 13:03:39;;;;;;;;;;;21.60;59.70;;;;;;6153646;23;19904;-88
2023/06/11 13:06:07;;;;;;;;;;;21.60;59.70;;;;;;6127017;23;20302;-88
2023/06/11 13:08:32;;;;;;;;;;;21.60;59.70;;;;;;6153545;23;19952;-87
2023/06/11 13:10:58;;;;;;;;;;;21.60;59.20;;;;;;6127336;23;19913;-87
2023/06/11 13:13:23;;;;;;;;;;;21.60;59.20;;;;;;6126819;23;20157;-91
2023/06/11 13:15:49;;;;;;;;;;;21.60;59.10;;;;;;6153451;23;19928;-87
2023/06/11 13:18:14;;;;;;;;;;;21.70;59.40;;;;;;6127761;23;20360;-91
2023/06/11 13:20:40;;;;;;;;;;;21.70;59.50;;;;;;6126784;23;20365;-90
2023/06/11 13:23:05;;;;;;;;;;;21.60;58.80;;;;;;6151496;23;19924;-90
2023/06/11 13:25:31;;;;;;;;;;;21.80;58.40;;;;;;6153077;23;19905;-90
2023/06/11 13:27:57;;;;;;;;;;;21.60;58.30;;;;;;6127179;23;19927;-89
2023/06/11 13:30:22;;;;;;;;;;;21.60;58.40;;;;;;6153707;23;19963;-89
2023/06/11 13:32:48;;;;;;;;;;;21.70;58.50;;;;;;6153444;23;19932;-88
2023/06/11 13:35:13;;;;;;;;;;;21.60;58.50;;;;;;6127150;23;19909;-89
2023/06/11 13:37:39;;;;;;;;;;;21.70;58.80;;;;;;6127822;23;20289;-89
2023/06/11 13:40:05;;;;;;;;;;;21.60;58.40;;;;;;6153713;23;20486;-89
2023/06/11 13:42:31;;;;;;;;;;;21.60;58.20;;;;;;6127305;23;19905;-89
2023/06/11 13:44:56;;;;;;;;;;;21.70;58.70;;;;;;6127670;23;20203;-90
2023/06/11 13:47:22;;;;;;;;;;;21.70;58.60;;;;;;6127255;23;19905;-88
2023/06/11 13:49:47;;;;;;;;;;;21.70;58.20;;;;;;6153032;23;19908;-89
2023/06/11 13:52:13;;;;;;;;;;;21.70;58.00;;;;;;6127474;23;19909;-89
2023/06/11 13:54:40;;;;;;;;;;;21.60;58.30;;;;;;6127754;23;19909;-88
2023/06/11 13:57:06;;;;;;;;;;;21.70;58.10;;;;;;6153246;23;19917;-90
2023/06/11 13:59:32;;;;;;;;;;;21.70;57.70;;;;;;6127872;23;19912;-90
2023/06/11 14:02:01;;;;;;;;;;;21.80;57.50;;;;;;6127730;23;20234;-89
2023/06/11 14:04:27;;;;;;;;;;;21.70;57.40;;;;;;6127387;23;19908;-91
2023/06/11 14:06:53;;;;;;;;;;;21.70;57.20;;;;;;6127412;23;19909;-90
2023/06/11 14:09:18;;;;;;;;;;;21.70;57.30;;;;;;6153419;23;19991;-90
2023/06/11 14:11:44;;;;;;;;;;;21.70;57.10;;;;;;6128443;23;19904;-90
2023/06/11 14:14:11;;;;;;;;;;;21.70;56.70;;;;;;6127711;23;19904;-90
2023/06/11 14:16:37;;;;;;;;;;;21.70;56.90;;;;;;6127452;23;19904;-91
2023/06/11 14:19:02;;;;;;;;;;;21.70;56.50;;;;;;6126814;23;19915;-91
2023/06/11 14:21:28;;;;;;;;;;;21.70;56.50;;;;;;6128540;23;19912;-89
2023/06/11 14:23:53;;;;;;;;;;;21.70;56.80;;;;;;6127934;23;20330;-91
2023/06/11 14:26:19;;;;;;;;;;;21.70;56.90;;;;;;6127119;23;19917;-89
2023/06/11 14:28:44;;;;;;;;;;;21.60;56.90;;;;;;6153162;23;19940;-90
2023/06/11 14:31:10;;;;;;;;;;;21.60;56.50;;;;;;6128057;23;19908;-89
2023/06/11 14:33:35;;;;;;;;;;;21.70;56.50;;;;;;6127907;23;19991;-88